Terminal Aerodrome Forecast
Issued by NWS

Home | Current Version | Previous Version | Text Only | Print | Product List | Glossary On
Versions: 1 2 3 4 5 6 7 8 9 10 11 12 13 14
000
FTAK31 PAJN 250500
TAFAKT
TAF
PAKT 250527Z 2506/2606 18006KT P6SM BKN040 OVC100
     FM251100 16008KT 6SM -RA BR BKN025 OVC050
     FM251600 16006KT P6SM -RA OVC015
     FM252200 16006KT P6SM VCSH SCT008 OVC015
      AMD LTD TO CLD VIS AND WIND 2506/2515=

USA.gov is the U.S. government's official web portal to all federal, state and local government web resources and services.